Terminal Aerodrome Forecast
Issued by NWS Louisville, KY

Home | Current Version | Previous Version | Text Only | Print | Product List | Glossary On
Versions: 1 2 3 4 5 6 7 8 9 10 11 12 13 14 15 16 17 18 19 20 21 22 23 24
000
FTUS43 KLMK 020500
TAFSDF
TAF
KSDF 020520Z 0206/0312 06005KT P6SM OVC013
     FM020800 02005KT P6SM BKN009
     FM021300 03005KT P6SM BKN015
     FM021600 04006KT P6SM BKN025
     FM021900 04006KT P6SM BKN035=

USA.gov is the U.S. government's official web portal to all federal, state and local government web resources and services.